Time;durP1;ratioP1;P1;durP2;ratioP2;P2;SDS_P1;SDS_P2;PMS_P1;PMS_P2;Temp;Humidity;BMP_temperature;BMP_pressure;BME280_temperature;BME280_humidity;BME280_pressure;Samples;Min_cycle;Max_cycle;Signal;HPM_P1;HPM_P2
2023/10/04 04:01:33;;;;;;;;;;;12.90;99.90;;;;;;5424689;23;19930;-66
2023/10/04 04:04:03;;;;;;;;;;;12.80;99.90;;;;;;4974280;28;20261;-66
2023/10/04 04:06:28;;;;;;;;;;;12.70;99.90;;;;;;4976622;28;19914;-66
2023/10/04 04:08:56;;;;;;;;;;;12.70;99.90;;;;;;4975995;28;19912;-66
2023/10/04 04:11:22;;;;;;;;;;;12.70;99.90;;;;;;4975660;28;19906;-67
2023/10/04 04:13:48;;;;;;;;;;;12.90;99.90;;;;;;4976102;28;19905;-66
2023/10/04 04:16:17;;;;;;;;;;;13.00;99.90;;;;;;4975868;28;19920;-66
2023/10/04 04:18:43;;;;;;;;;;;12.80;99.90;;;;;;4975270;28;19913;-66
2023/10/04 04:21:08;;;;;;;;;;;12.70;99.90;;;;;;4975621;28;20292;-66
2023/10/04 04:23:35;;;;;;;;;;;12.70;99.90;;;;;;4976477;28;19913;-66
2023/10/04 04:26:01;;;;;;;;;;;12.90;99.90;;;;;;4975539;28;20321;-66
2023/10/04 04:28:27;;;;;;;;;;;13.00;99.90;;;;;;4975683;28;19925;-67
2023/10/04 04:30:53;;;;;;;;;;;13.00;99.90;;;;;;4974009;28;19906;-66
2023/10/04 04:33:19;;;;;;;;;;;13.10;99.90;;;;;;4976169;28;19910;-66
2023/10/04 04:38:16;;;;;;;;;;;13.10;99.90;;;;;;4958675;28;20005;-67
2023/10/04 04:40:44;;;;;;;;;;;13.00;99.90;;;;;;4963380;28;19909;-67
2023/10/04 04:45:50;;;;;;;;;;;13.00;99.90;;;;;;4975853;28;19906;-67
2023/10/04 04:48:25;;;;;;;;;;;13.00;99.90;;;;;;4975897;28;19909;-67
2023/10/04 04:50:54;;;;;;;;;;;13.00;99.90;;;;;;4967822;28;20367;-67
2023/10/04 04:53:22;;;;;;;;;;;12.80;99.90;;;;;;4976128;28;20357;-65
2023/10/04 04:55:50;;;;;;;;;;;12.80;99.90;;;;;;4976143;28;19910;-64
2023/10/04 04:58:23;;;;;;;;;;;12.90;99.90;;;;;;4975998;28;19913;-64
2023/10/04 05:00:50;;;;;;;;;;;12.80;99.90;;;;;;4975703;28;19961;-65
2023/10/04 05:03:18;;;;;;;;;;;12.80;99.90;;;;;;4976456;28;19949;-65
2023/10/04 05:05:44;;;;;;;;;;;12.80;99.90;;;;;;4975920;28;19906;-65
2023/10/04 05:08:10;;;;;;;;;;;12.80;99.90;;;;;;4966302;28;20408;-64
2023/10/04 05:10:38;;;;;;;;;;;12.80;99.90;;;;;;4968126;28;19917;-64
2023/10/04 05:13:07;;;;;;;;;;;12.90;99.90;;;;;;4970088;28;19906;-64
2023/10/04 05:15:33;;;;;;;;;;;12.90;99.90;;;;;;4974589;28;20016;-64
2023/10/04 05:18:00;;;;;;;;;;;13.00;99.90;;;;;;4963698;28;20019;-64
2023/10/04 05:20:27;;;;;;;;;;;13.00;99.90;;;;;;4964155;28;19918;-63
2023/10/04 05:22:53;;;;;;;;;;;12.70;99.90;;;;;;4961736;28;19907;-64
2023/10/04 05:25:20;;;;;;;;;;;12.60;99.90;;;;;;4974701;28;19920;-64
2023/10/04 05:27:48;;;;;;;;;;;12.50;99.90;;;;;;4975485;28;20335;-63
2023/10/04 05:30:15;;;;;;;;;;;12.70;99.90;;;;;;4974385;28;19906;-64
2023/10/04 05:32:47;;;;;;;;;;;12.80;99.90;;;;;;4974494;28;19910;-65
2023/10/04 05:35:14;;;;;;;;;;;12.90;99.90;;;;;;4974372;28;20284;-63
2023/10/04 05:37:44;;;;;;;;;;;12.60;99.90;;;;;;4971095;28;19906;-64
2023/10/04 05:40:16;;;;;;;;;;;12.50;99.90;;;;;;4967194;28;19910;-64
2023/10/04 05:42:44;;;;;;;;;;;12.30;99.90;;;;;;4962396;28;20341;-64
2023/10/04 05:45:14;;;;;;;;;;;12.30;99.90;;;;;;4974902;28;19906;-63
2023/10/04 05:47:39;;;;;;;;;;;12.20;99.90;;;;;;4974541;28;19965;-63
2023/10/04 05:50:06;;;;;;;;;;;12.20;99.90;;;;;;4974612;28;19910;-63
2023/10/04 05:52:34;;;;;;;;;;;12.10;99.90;;;;;;4974471;28;19910;-64
2023/10/04 05:55:00;;;;;;;;;;;12.20;99.90;;;;;;4974821;28;19910;-63
2023/10/04 05:57:26;;;;;;;;;;;12.20;99.90;;;;;;4975585;28;19952;-63
2023/10/04 05:59:52;;;;;;;;;;;12.30;99.90;;;;;;4978366;28;19910;-63
2023/10/04 06:02:18;;;;;;;;;;;12.30;99.90;;;;;;4977939;28;19921;-63
2023/10/04 06:04:44;;;;;;;;;;;12.30;99.90;;;;;;4971454;28;20372;-63
2023/10/04 06:07:09;;;;;;;;;;;12.20;99.90;;;;;;4960905;28;19910;-65
2023/10/04 06:09:42;;;;;;;;;;;12.20;99.90;;;;;;4977862;28;19906;-62
2023/10/04 06:12:08;;;;;;;;;;;12.20;99.90;;;;;;4978007;28;20295;-63
2023/10/04 06:14:35;;;;;;;;;;;12.20;99.90;;;;;;4978155;28;19906;-62
2023/10/04 06:17:00;;;;;;;;;;;12.10;99.90;;;;;;4977978;28;19941;-63
2023/10/04 06:19:27;;;;;;;;;;;12.20;99.90;;;;;;4978139;28;19906;-62
2023/10/04 06:21:53;;;;;;;;;;;12.20;99.90;;;;;;4976454;28;19915;-62
2023/10/04 06:24:18;;;;;;;;;;;12.20;99.90;;;;;;4976618;28;20421;-65
2023/10/04 06:26:44;;;;;;;;;;;12.20;99.90;;;;;;4977752;28;19912;-64
2023/10/04 06:29:09;;;;;;;;;;;12.20;99.90;;;;;;4978237;28;19912;-63
2023/10/04 06:31:35;;;;;;;;;;;12.20;99.90;;;;;;4977542;28;19910;-62
2023/10/04 06:34:02;;;;;;;;;;;12.30;99.90;;;;;;4976150;28;19914;-59
2023/10/04 06:36:29;;;;;;;;;;;12.40;99.90;;;;;;4958285;28;19982;-61
2023/10/04 06:38:55;;;;;;;;;;;12.40;99.90;;;;;;4958586;28;19906;-63
2023/10/04 06:41:25;;;;;;;;;;;12.40;99.90;;;;;;4969861;28;20041;-64
2023/10/04 06:43:50;;;;;;;;;;;12.40;99.90;;;;;;4971543;28;20397;-65
2023/10/04 06:46:16;;;;;;;;;;;12.40;99.90;;;;;;4972123;28;19910;-65
2023/10/04 06:48:42;;;;;;;;;;;12.50;99.90;;;;;;4972585;28;19973;-66
2023/10/04 06:51:07;;;;;;;;;;;12.60;99.90;;;;;;4975083;28;19945;-65
2023/10/04 06:53:33;;;;;;;;;;;12.60;99.90;;;;;;4969821;28;20005;-65
2023/10/04 06:55:59;;;;;;;;;;;12.70;99.90;;;;;;4976407;28;19914;-66
2023/10/04 06:58:25;;;;;;;;;;;12.70;99.90;;;;;;4975602;28;19906;-63
2023/10/04 07:00:50;;;;;;;;;;;12.70;99.90;;;;;;4974397;28;20145;-64
2023/10/04 07:03:15;;;;;;;;;;;12.90;99.90;;;;;;4979045;28;19929;-65
2023/10/04 07:05:42;;;;;;;;;;;12.90;99.90;;;;;;4982652;28;19917;-66
2023/10/04 07:08:09;;;;;;;;;;;13.10;99.90;;;;;;4988838;28;19910;-64
2023/10/04 07:10:34;;;;;;;;;;;13.10;99.90;;;;;;4974294;28;19906;-64
2023/10/04 07:13:01;;;;;;;;;;;13.10;99.90;;;;;;4973549;28;19906;-65
2023/10/04 07:15:28;;;;;;;;;;;13.00;99.90;;;;;;4972785;28;20017;-64
2023/10/04 07:17:53;;;;;;;;;;;13.10;99.90;;;;;;4972697;28;19910;-65
2023/10/04 07:20:19;;;;;;;;;;;13.20;99.90;;;;;;4971760;28;19917;-65
2023/10/04 07:22:45;;;;;;;;;;;13.30;99.90;;;;;;4973475;28;19957;-65
2023/10/04 07:25:12;;;;;;;;;;;13.30;99.90;;;;;;4976159;28;20093;-65
2023/10/04 07:27:45;;;;;;;;;;;13.30;99.90;;;;;;4975929;28;20377;-65
2023/10/04 07:30:14;;;;;;;;;;;13.40;99.90;;;;;;4966146;28;19961;-65
2023/10/04 07:32:46;;;;;;;;;;;13.40;99.90;;;;;;4969539;28;20344;-65
2023/10/04 07:35:15;;;;;;;;;;;13.50;99.90;;;;;;4967097;28;19937;-64
2023/10/04 07:37:41;;;;;;;;;;;13.50;99.90;;;;;;4966756;28;20362;-65
2023/10/04 07:40:10;;;;;;;;;;;13.60;99.90;;;;;;4966825;28;19952;-65
2023/10/04 07:42:36;;;;;;;;;;;13.70;99.90;;;;;;4969235;28;19914;-65
2023/10/04 07:45:03;;;;;;;;;;;13.70;99.90;;;;;;4976612;28;20333;-64
2023/10/04 07:47:28;;;;;;;;;;;13.80;99.90;;;;;;4976301;28;19956;-64
2023/10/04 07:49:54;;;;;;;;;;;13.90;99.90;;;;;;4975909;28;20012;-64
2023/10/04 07:52:19;;;;;;;;;;;13.90;99.90;;;;;;4976074;28;19906;-64
2023/10/04 07:54:45;;;;;;;;;;;13.90;99.90;;;;;;4976480;28;19910;-64
2023/10/04 07:57:10;;;;;;;;;;;13.90;99.90;;;;;;4976491;28;19933;-64
2023/10/04 07:59:37;;;;;;;;;;;14.00;99.90;;;;;;4976151;28;19917;-64
2023/10/04 08:02:03;;;;;;;;;;;14.10;99.90;;;;;;4975648;28;19914;-64
2023/10/04 08:04:29;;;;;;;;;;;14.20;99.90;;;;;;4975758;28;20300;-64
2023/10/04 08:06:55;;;;;;;;;;;14.40;99.90;;;;;;4975765;28;19910;-64
2023/10/04 08:09:21;;;;;;;;;;;14.40;99.90;;;;;;4974077;28;19952;-64
2023/10/04 08:11:47;;;;;;;;;;;14.50;99.90;;;;;;4975764;28;19929;-64
2023/10/04 08:14:12;;;;;;;;;;;14.60;99.90;;;;;;4974713;28;20369;-64
2023/10/04 08:16:38;;;;;;;;;;;14.60;99.90;;;;;;4973277;28;19921;-64
2023/10/04 08:19:04;;;;;;;;;;;14.70;99.90;;;;;;4970316;28;20320;-65
2023/10/04 08:21:30;;;;;;;;;;;14.80;99.90;;;;;;4974026;28;20428;-64
2023/10/04 08:23:57;;;;;;;;;;;14.80;99.90;;;;;;4974983;28;19942;-65
2023/10/04 08:26:22;;;;;;;;;;;15.00;99.90;;;;;;4975062;28;19952;-65
2023/10/04 08:28:48;;;;;;;;;;;15.10;99.90;;;;;;4974574;28;20317;-65
2023/10/04 08:31:14;;;;;;;;;;;15.00;99.90;;;;;;4974793;28;19910;-65
2023/10/04 08:33:43;;;;;;;;;;;15.10;99.90;;;;;;4973293;28;20407;-65
2023/10/04 08:36:18;;;;;;;;;;;15.20;99.90;;;;;;4970212;28;19913;-65
2023/10/04 08:38:45;;;;;;;;;;;15.30;99.90;;;;;;4972689;28;19917;-64
2023/10/04 08:41:11;;;;;;;;;;;15.30;99.90;;;;;;4975132;28;20357;-66
2023/10/04 08:43:37;;;;;;;;;;;15.30;99.90;;;;;;4974919;28;20364;-66
2023/10/04 08:46:03;;;;;;;;;;;15.40;99.90;;;;;;4975085;28;19906;-65
2023/10/04 08:48:29;;;;;;;;;;;15.60;99.90;;;;;;4975521;28;20019;-65
2023/10/04 08:51:01;;;;;;;;;;;15.70;99.90;;;;;;4974948;28;19913;-65
2023/10/04 08:53:45;;;;;;;;;;;16.30;99.90;;;;;;4975181;28;19960;-64
2023/10/04 08:56:13;;;;;;;;;;;17.90;99.90;;;;;;4974355;28;20017;-66
2023/10/04 08:58:40;;;;;;;;;;;20.00;99.90;;;;;;4975297;28;19957;-66
2023/10/04 09:01:06;;;;;;;;;;;21.30;99.90;;;;;;4974721;28;19932;-66
2023/10/04 09:03:33;;;;;;;;;;;21.20;99.90;;;;;;4974707;28;19906;-66
2023/10/04 09:05:59;;;;;;;;;;;20.70;99.90;;;;;;4974049;28;20004;-66
2023/10/04 09:08:25;;;;;;;;;;;20.10;99.90;;;;;;4974405;28;19910;-66
2023/10/04 09:10:53;;;;;;;;;;;19.40;99.90;;;;;;4975094;28;19917;-64
2023/10/04 09:13:19;;;;;;;;;;;19.00;99.90;;;;;;4974715;28;20017;-63
2023/10/04 09:15:44;;;;;;;;;;;18.80;99.90;;;;;;4974331;28;20367;-63
2023/10/04 09:18:10;;;;;;;;;;;18.70;99.90;;;;;;4974826;28;19997;-64
2023/10/04 09:20:36;;;;;;;;;;;19.00;99.90;;;;;;4974542;28;19917;-64
2023/10/04 09:23:14;;;;;;;;;;;19.80;99.90;;;;;;4973917;28;19921;-64
2023/10/04 09:25:40;;;;;;;;;;;20.20;99.90;;;;;;4973270;28;19914;-64
2023/10/04 09:28:08;;;;;;;;;;;20.00;99.90;;;;;;4973121;28;19910;-64
2023/10/04 09:30:34;;;;;;;;;;;19.70;99.90;;;;;;4974698;28;19906;-64
2023/10/04 09:32:59;;;;;;;;;;;19.50;99.90;;;;;;4976778;28;19957;-64
2023/10/04 09:35:40;;;;;;;;;;;19.40;99.90;;;;;;4971226;28;19915;-64
2023/10/04 09:38:20;;;;;;;;;;;19.20;99.90;;;;;;4971457;28;19993;-65
2023/10/04 09:40:51;;;;;;;;;;;19.10;99.90;;;;;;4978699;28;20044;-64
2023/10/04 09:43:17;;;;;;;;;;;19.40;99.90;;;;;;4978054;28;19910;-64
2023/10/04 09:45:55;;;;;;;;;;;19.60;99.90;;;;;;4978455;28;19922;-64
2023/10/04 09:48:21;;;;;;;;;;;20.10;99.90;;;;;;4978286;28;20283;-64
2023/10/04 09:50:46;;;;;;;;;;;20.20;99.90;;;;;;4978060;28;20365;-64
2023/10/04 09:53:12;;;;;;;;;;;20.20;99.90;;;;;;4978307;28;19965;-66
2023/10/04 09:55:38;;;;;;;;;;;20.50;99.90;;;;;;4976898;28;19913;-66
2023/10/04 09:58:05;;;;;;;;;;;21.30;99.70;;;;;;4977831;28;19906;-65
2023/10/04 10:00:31;;;;;;;;;;;22.20;98.20;;;;;;4977884;28;19914;-65
2023/10/04 10:02:58;;;;;;;;;;;23.40;97.00;;;;;;4978431;28;19914;-65
2023/10/04 10:05:27;;;;;;;;;;;25.30;94.40;;;;;;4977856;28;20365;-64
2023/10/04 10:07:53;;;;;;;;;;;27.40;91.80;;;;;;4977839;28;19929;-65
2023/10/04 10:10:20;;;;;;;;;;;28.80;89.20;;;;;;4976695;28;19921;-65
2023/10/04 10:12:48;;;;;;;;;;;30.10;84.70;;;;;;4977777;28;19933;-66
2023/10/04 10:15:15;;;;;;;;;;;30.60;81.60;;;;;;4999400;23;19958;-67
2023/10/04 10:17:42;;;;;;;;;;;31.00;79.80;;;;;;4965331;28;19911;-66
2023/10/04 10:20:11;;;;;;;;;;;31.70;78.10;;;;;;4958543;28;19917;-65
2023/10/04 10:22:56;;;;;;;;;;;32.80;75.50;;;;;;4958338;28;20365;-65
2023/10/04 10:25:22;;;;;;;;;;;33.10;73.00;;;;;;4958555;28;19906;-66
2023/10/04 10:27:47;;;;;;;;;;;31.90;73.30;;;;;;4957052;29;19917;-65
2023/10/04 10:30:16;;;;;;;;;;;31.90;73.40;;;;;;4955033;29;19919;-65
2023/10/04 10:33:12;;;;;;;;;;;31.60;73.10;;;;;;4946630;29;19954;-65
2023/10/04 10:35:50;;;;;;;;;;;31.80;72.90;;;;;;4898482;29;20409;-66
2023/10/04 10:38:34;;;;;;;;;;;32.00;71.90;;;;;;4898314;29;20358;-67
2023/10/04 10:41:00;;;;;;;;;;;32.40;71.70;;;;;;4898709;29;19919;-66
2023/10/04 10:43:25;;;;;;;;;;;32.60;69.80;;;;;;4898345;29;20294;-66
2023/10/04 10:45:51;;;;;;;;;;;32.30;69.60;;;;;;4898495;29;19907;-68
2023/10/04 10:48:16;;;;;;;;;;;32.10;70.10;;;;;;4898803;29;19911;-68
2023/10/04 10:50:42;;;;;;;;;;;32.40;69.60;;;;;;4899305;29;19914;-66
2023/10/04 10:53:10;;;;;;;;;;;32.70;68.20;;;;;;4899145;29;19951;-66
2023/10/04 10:55:36;;;;;;;;;;;31.50;68.20;;;;;;4898869;29;19987;-66
2023/10/04 10:58:02;;;;;;;;;;;29.20;70.60;;;;;;4898751;29;19955;-66
2023/10/04 11:00:33;;;;;;;;;;;27.20;73.70;;;;;;4882736;29;19908;-66
2023/10/04 11:02:59;;;;;;;;;;;25.40;76.60;;;;;;4897957;29;20309;-65
2023/10/04 11:05:25;;;;;;;;;;;24.20;80.00;;;;;;4897223;29;20310;-66
2023/10/04 11:07:52;;;;;;;;;;;23.30;81.70;;;;;;4899282;29;19907;-66
2023/10/04 11:10:20;;;;;;;;;;;22.50;83.70;;;;;;4898504;29;19960;-64
2023/10/04 11:12:56;;;;;;;;;;;21.80;85.10;;;;;;4946894;29;19914;-66
2023/10/04 11:15:26;;;;;;;;;;;21.40;86.10;;;;;;4952129;28;19914;-67
2023/10/04 11:17:52;;;;;;;;;;;20.90;87.30;;;;;;4957924;28;19906;-66
2023/10/04 11:20:17;;;;;;;;;;;20.70;88.30;;;;;;4956514;29;19930;-67
2023/10/04 11:22:44;;;;;;;;;;;20.60;88.40;;;;;;4957889;29;19988;-67
2023/10/04 11:25:11;;;;;;;;;;;20.60;88.60;;;;;;4957611;28;19907;-66
2023/10/04 11:27:37;;;;;;;;;;;20.80;88.30;;;;;;4957283;28;20010;-67
2023/10/04 11:30:03;;;;;;;;;;;20.70;88.80;;;;;;4957200;28;19973;-67
2023/10/04 11:32:28;;;;;;;;;;;20.70;89.60;;;;;;4957530;28;19910;-67
2023/10/04 11:34:55;;;;;;;;;;;20.60;90.00;;;;;;4956731;29;20265;-66
2023/10/04 11:37:20;;;;;;;;;;;20.40;90.50;;;;;;4957217;28;19915;-68
2023/10/04 11:39:46;;;;;;;;;;;20.30;90.90;;;;;;4957581;29;19918;-67
2023/10/04 11:42:19;;;;;;;;;;;20.20;91.30;;;;;;4956625;29;19933;-67
2023/10/04 11:44:45;;;;;;;;;;;20.20;91.40;;;;;;4957049;28;19918;-67
2023/10/04 11:47:10;;;;;;;;;;;20.10;91.70;;;;;;4957746;28;20254;-66
2023/10/04 11:49:38;;;;;;;;;;;20.00;91.50;;;;;;4957280;29;19928;-66
2023/10/04 11:52:04;;;;;;;;;;;19.90;91.70;;;;;;4956987;28;19958;-67
2023/10/04 11:54:40;;;;;;;;;;;19.70;92.20;;;;;;4956552;28;20321;-67
2023/10/04 11:57:06;;;;;;;;;;;19.80;92.50;;;;;;4956920;28;19910;-66
2023/10/04 11:59:31;;;;;;;;;;;19.80;92.40;;;;;;4956575;29;20285;-65
2023/10/04 12:01:57;;;;;;;;;;;19.50;92.80;;;;;;4956613;28;19957;-68
2023/10/04 12:04:22;;;;;;;;;;;19.40;93.40;;;;;;4956519;29;19997;-68
2023/10/04 12:07:04;;;;;;;;;;;19.50;93.60;;;;;;4955373;29;19942;-68
2023/10/04 12:09:36;;;;;;;;;;;19.40;93.80;;;;;;4957048;28;19906;-68
2023/10/04 12:12:03;;;;;;;;;;;19.30;94.00;;;;;;4957055;28;20276;-68
2023/10/04 12:14:31;;;;;;;;;;;19.30;94.10;;;;;;4958323;28;19921;-68
2023/10/04 12:17:03;;;;;;;;;;;19.40;94.40;;;;;;4956265;28;19965;-68
2023/10/04 12:19:34;;;;;;;;;;;19.40;94.50;;;;;;4955101;29;20289;-68
2023/10/04 12:22:02;;;;;;;;;;;19.40;94.60;;;;;;4956243;28;19906;-67
2023/10/04 12:24:30;;;;;;;;;;;19.30;94.50;;;;;;4955988;29;19910;-66
2023/10/04 12:26:56;;;;;;;;;;;19.40;94.30;;;;;;4956193;28;20452;-66
2023/10/04 12:29:22;;;;;;;;;;;19.50;94.40;;;;;;4954737;29;20026;-66
2023/10/04 12:31:47;;;;;;;;;;;19.50;93.80;;;;;;4956883;29;19938;-66
2023/10/04 12:34:14;;;;;;;;;;;19.50;94.00;;;;;;4960122;29;19918;-67
2023/10/04 12:36:39;;;;;;;;;;;19.40;93.50;;;;;;4958127;28;19910;-67
2023/10/04 12:39:06;;;;;;;;;;;19.40;93.80;;;;;;4951081;29;20005;-66
2023/10/04 12:41:32;;;;;;;;;;;19.50;93.80;;;;;;4937563;29;20337;-66
2023/10/04 12:43:57;;;;;;;;;;;19.60;93.50;;;;;;4955490;28;19948;-65
2023/10/04 12:46:23;;;;;;;;;;;19.60;93.50;;;;;;4955912;29;19917;-65
2023/10/04 12:48:48;;;;;;;;;;;19.60;93.20;;;;;;4956110;29;19907;-66
2023/10/04 12:51:14;;;;;;;;;;;19.60;92.70;;;;;;4956131;28;19910;-67
2023/10/04 12:53:40;;;;;;;;;;;19.70;92.60;;;;;;4937273;29;19962;-66
2023/10/04 12:56:07;;;;;;;;;;;19.80;92.60;;;;;;4936580;29;19910;-66
2023/10/04 12:58:33;;;;;;;;;;;19.90;92.80;;;;;;4947433;29;19906;-66
2023/10/04 13:00:58;;;;;;;;;;;20.00;92.00;;;;;;4955635;28;19916;-66
2023/10/04 13:03:24;;;;;;;;;;;20.00;91.70;;;;;;4954501;29;19997;-66
2023/10/04 13:05:49;;;;;;;;;;;20.10;91.70;;;;;;4955472;29;20066;-65
2023/10/04 13:08:16;;;;;;;;;;;20.20;91.30;;;;;;4955487;29;19911;-66
2023/10/04 13:10:42;;;;;;;;;;;20.20;90.60;;;;;;4955725;28;19914;-66
2023/10/04 13:13:08;;;;;;;;;;;20.20;91.10;;;;;;4954638;29;19907;-67
2023/10/04 13:15:34;;;;;;;;;;;20.10;91.30;;;;;;4969224;28;19918;-66
2023/10/04 13:18:02;;;;;;;;;;;20.10;91.10;;;;;;4971327;28;20350;-66
2023/10/04 13:20:28;;;;;;;;;;;20.10;91.40;;;;;;4955638;28;20321;-66
2023/10/04 13:22:54;;;;;;;;;;;20.10;91.00;;;;;;4955227;28;19914;-66
2023/10/04 13:25:20;;;;;;;;;;;20.10;90.60;;;;;;4955751;28;19910;-65
2023/10/04 13:27:45;;;;;;;;;;;20.20;90.50;;;;;;4955503;29;20380;-67
2023/10/04 13:30:13;;;;;;;;;;;20.20;90.50;;;;;;4955712;28;20041;-64
2023/10/04 13:32:38;;;;;;;;;;;20.10;90.50;;;;;;4955179;28;19934;-65
2023/10/04 13:35:06;;;;;;;;;;;20.00;89.60;;;;;;4954099;28;20373;-66
2023/10/04 13:37:31;;;;;;;;;;;20.00;89.90;;;;;;4943744;29;20012;-66
2023/10/04 13:39:57;;;;;;;;;;;20.10;88.10;;;;;;4936214;29;19907;-67
2023/10/04 13:42:23;;;;;;;;;;;20.10;88.60;;;;;;4936169;29;19911;-72
2023/10/04 13:44:49;;;;;;;;;;;20.30;89.50;;;;;;4944866;29;20274;-66
2023/10/04 13:47:15;;;;;;;;;;;20.30;89.30;;;;;;4954798;29;19993;-66
2023/10/04 13:49:41;;;;;;;;;;;20.40;90.00;;;;;;4955444;28;19911;-66
2023/10/04 13:52:07;;;;;;;;;;;20.50;90.20;;;;;;4955316;28;19906;-65
2023/10/04 13:54:32;;;;;;;;;;;20.70;89.90;;;;;;4955289;29;20048;-68
2023/10/04 13:56:59;;;;;;;;;;;20.80;89.50;;;;;;4954899;29;19914;-67
2023/10/04 13:59:25;;;;;;;;;;;20.70;90.00;;;;;;4955238;28;20051;-67
2023/10/04 14:01:50;;;;;;;;;;;20.50;90.20;;;;;;4955197;28;19907;-67
2023/10/04 14:04:18;;;;;;;;;;;20.40;90.60;;;;;;4955317;29;20387;-67
2023/10/04 14:06:43;;;;;;;;;;;20.40;90.70;;;;;;4954897;28;19910;-67
2023/10/04 14:09:14;;;;;;;;;;;20.30;91.10;;;;;;4955393;29;19914;-66
2023/10/04 14:11:40;;;;;;;;;;;20.30;90.70;;;;;;4955885;29;19906;-65
2023/10/04 14:14:07;;;;;;;;;;;20.30;90.90;;;;;;4957735;28;19910;-65
2023/10/04 14:16:33;;;;;;;;;;;20.50;90.10;;;;;;4957137;28;19914;-66
2023/10/04 14:18:59;;;;;;;;;;;20.40;90.30;;;;;;4956427;28;19914;-65
2023/10/04 14:21:24;;;;;;;;;;;20.40;90.10;;;;;;4958775;29;19917;-66
2023/10/04 14:23:50;;;;;;;;;;;20.30;90.40;;;;;;4958709;29;19906;-68
2023/10/04 14:26:17;;;;;;;;;;;20.20;90.50;;;;;;4958946;28;19917;-67
2023/10/04 14:28:43;;;;;;;;;;;20.20;90.40;;;;;;4958165;28;20369;-67
2023/10/04 14:31:11;;;;;;;;;;;20.20;90.30;;;;;;4957687;28;19965;-67
2023/10/04 14:33:38;;;;;;;;;;;20.10;90.00;;;;;;4957004;29;20289;-69
2023/10/04 14:36:03;;;;;;;;;;;20.00;90.20;;;;;;4958549;28;19916;-67
2023/10/04 14:38:29;;;;;;;;;;;19.80;90.40;;;;;;4958160;29;19915;-66
2023/10/04 14:40:56;;;;;;;;;;;19.80;90.30;;;;;;4957972;29;19910;-66
2023/10/04 14:43:22;;;;;;;;;;;19.70;90.50;;;;;;4958363;28;20378;-66
2023/10/04 14:45:50;;;;;;;;;;;19.70;90.90;;;;;;4959309;28;20065;-67
2023/10/04 14:48:17;;;;;;;;;;;19.70;90.90;;;;;;4951752;28;20349;-67
2023/10/04 14:50:42;;;;;;;;;;;19.60;91.10;;;;;;4956936;28;19907;-65
2023/10/04 14:53:08;;;;;;;;;;;19.60;90.90;;;;;;4950266;29;19997;-66
2023/10/04 14:55:33;;;;;;;;;;;19.60;90.70;;;;;;4952547;29;19948;-67
2023/10/04 14:57:59;;;;;;;;;;;19.50;91.10;;;;;;4955205;29;19914;-67
2023/10/04 15:00:25;;;;;;;;;;;19.60;90.60;;;;;;4955771;29;19915;-68
2023/10/04 15:02:53;;;;;;;;;;;19.50;90.80;;;;;;4957258;28;20289;-68
2023/10/04 15:05:20;;;;;;;;;;;19.30;91.20;;;;;;4958308;28;20337;-68
2023/10/04 15:07:47;;;;;;;;;;;19.30;90.90;;;;;;4958045;28;19910;-68
2023/10/04 15:10:18;;;;;;;;;;;19.30;91.00;;;;;;4957362;28;19919;-67
2023/10/04 15:12:45;;;;;;;;;;;19.30;91.20;;;;;;4957954;28;19997;-68
2023/10/04 15:15:10;;;;;;;;;;;19.30;91.30;;;;;;4968255;28;19953;-68
2023/10/04 15:17:38;;;;;;;;;;;19.30;90.90;;;;;;4976874;28;19944;-69
2023/10/04 15:20:04;;;;;;;;;;;19.20;91.10;;;;;;4958464;28;20412;-67
2023/10/04 15:22:35;;;;;;;;;;;19.20;91.00;;;;;;4957699;28;19906;-67
2023/10/04 15:25:07;;;;;;;;;;;19.20;90.90;;;;;;4957596;28;19906;-67
2023/10/04 15:27:33;;;;;;;;;;;19.20;91.30;;;;;;4957836;28;19906;-67
2023/10/04 15:29:58;;;;;;;;;;;19.20;90.80;;;;;;4956447;28;20277;-68
2023/10/04 15:32:24;;;;;;;;;;;19.20;90.90;;;;;;4957608;29;19911;-67
2023/10/04 15:34:49;;;;;;;;;;;19.20;91.40;;;;;;4967854;29;19914;-69
2023/10/04 15:37:15;;;;;;;;;;;19.30;91.50;;;;;;4969222;29;19989;-66
2023/10/04 15:39:41;;;;;;;;;;;19.40;91.30;;;;;;4958403;29;19911;-66
2023/10/04 15:42:08;;;;;;;;;;;19.30;91.40;;;;;;4955834;28;19911;-67
2023/10/04 15:44:35;;;;;;;;;;;19.20;91.60;;;;;;4960511;28;19906;-67
2023/10/04 15:47:00;;;;;;;;;;;19.20;91.40;;;;;;4976142;28;20362;-65
2023/10/04 15:49:26;;;;;;;;;;;19.10;91.80;;;;;;4973651;28;19906;-66
2023/10/04 15:51:52;;;;;;;;;;;19.00;92.00;;;;;;4956787;29;20294;-65
2023/10/04 15:54:17;;;;;;;;;;;19.00;92.10;;;;;;4957110;28;20052;-65
2023/10/04 15:56:43;;;;;;;;;;;19.00;92.10;;;;;;4956664;29;20369;-65
2023/10/04 15:59:08;;;;;;;;;;;18.90;92.30;;;;;;4956773;28;20357;-66
2023/10/04 16:01:34;;;;;;;;;;;18.80;92.60;;;;;;4956048;29;19910;-66
2023/10/04 16:03:59;;;;;;;;;;;18.80;92.80;;;;;;4956301;28;20326;-65
2023/10/04 16:06:26;;;;;;;;;;;18.70;92.90;;;;;;4949180;29;19928;-65
2023/10/04 16:08:52;;;;;;;;;;;18.90;92.70;;;;;;4937977;29;19925;-65
2023/10/04 16:11:17;;;;;;;;;;;18.90;92.50;;;;;;4950782;28;20031;-65
2023/10/04 16:13:44;;;;;;;;;;;18.70;92.80;;;;;;4956012;28;19907;-65
2023/10/04 16:16:09;;;;;;;;;;;18.50;93.10;;;;;;4989922;23;20380;-66
2023/10/04 16:18:35;;;;;;;;;;;18.30;93.60;;;;;;4976670;28;19906;-66
2023/10/04 16:21:01;;;;;;;;;;;18.20;93.70;;;;;;4967554;28;19953;-66
2023/10/04 16:23:28;;;;;;;;;;;18.10;93.80;;;;;;4973012;28;19960;-66
2023/10/04 16:25:54;;;;;;;;;;;18.00;93.90;;;;;;4971594;28;20307;-67
2023/10/04 16:28:19;;;;;;;;;;;18.00;94.10;;;;;;4970978;28;19917;-67
2023/10/04 16:30:45;;;;;;;;;;;18.00;94.30;;;;;;4969474;28;19918;-66
2023/10/04 16:33:11;;;;;;;;;;;18.00;94.20;;;;;;4975193;28;19917;-66
2023/10/04 16:35:38;;;;;;;;;;;17.90;94.30;;;;;;4975668;28;19918;-67
2023/10/04 16:38:03;;;;;;;;;;;17.90;94.60;;;;;;4974970;28;19910;-65
2023/10/04 16:40:29;;;;;;;;;;;17.80;94.60;;;;;;4975799;28;19906;-66
2023/10/04 16:42:57;;;;;;;;;;;17.80;94.90;;;;;;4974546;28;19972;-67
2023/10/04 16:45:23;;;;;;;;;;;17.80;94.90;;;;;;4974919;28;19913;-67
2023/10/04 16:47:48;;;;;;;;;;;17.70;94.90;;;;;;4973977;28;20357;-68
2023/10/04 16:50:16;;;;;;;;;;;17.70;95.10;;;;;;4974418;28;19913;-67
2023/10/04 16:52:42;;;;;;;;;;;17.60;95.20;;;;;;4975929;28;19917;-68
2023/10/04 16:55:09;;;;;;;;;;;17.70;95.20;;;;;;4974920;28;20281;-67
2023/10/04 16:57:35;;;;;;;;;;;17.60;95.30;;;;;;4975090;28;19906;-66
2023/10/04 17:00:01;;;;;;;;;;;17.60;95.50;;;;;;4974399;28;19978;-67
2023/10/04 17:02:26;;;;;;;;;;;17.60;95.70;;;;;;4975549;28;19906;-67
2023/10/04 17:04:52;;;;;;;;;;;17.60;95.70;;;;;;4973527;28;19910;-67
2023/10/04 17:07:17;;;;;;;;;;;17.50;95.80;;;;;;4974957;28;19989;-66
2023/10/04 17:09:44;;;;;;;;;;;17.40;96.00;;;;;;4973012;28;19914;-66
2023/10/04 17:12:10;;;;;;;;;;;17.30;96.20;;;;;;4974705;28;19993;-66
2023/10/04 17:14:36;;;;;;;;;;;17.30;96.40;;;;;;4974878;28;19913;-66
2023/10/04 17:17:01;;;;;;;;;;;17.30;96.60;;;;;;4975934;28;20025;-66
2023/10/04 17:19:26;;;;;;;;;;;17.30;96.50;;;;;;4977455;28;19906;-66
2023/10/04 17:21:52;;;;;;;;;;;17.20;96.70;;;;;;4974671;28;20379;-65
2023/10/04 17:24:18;;;;;;;;;;;17.20;96.80;;;;;;4975527;28;20353;-65
2023/10/04 17:26:48;;;;;;;;;;;17.20;97.00;;;;;;4975297;28;20340;-66
2023/10/04 17:29:14;;;;;;;;;;;17.10;97.10;;;;;;4976156;28;19906;-67
2023/10/04 17:31:41;;;;;;;;;;;17.10;97.30;;;;;;4974080;28;19906;-66
2023/10/04 17:34:07;;;;;;;;;;;17.10;97.40;;;;;;4964998;28;19961;-68
2023/10/04 17:36:34;;;;;;;;;;;17.10;97.40;;;;;;4975220;28;19914;-69
2023/10/04 17:39:00;;;;;;;;;;;17.00;97.50;;;;;;4975567;28;19933;-69
2023/10/04 17:41:25;;;;;;;;;;;17.00;97.70;;;;;;4975102;28;20329;-66
2023/10/04 17:43:51;;;;;;;;;;;16.90;98.00;;;;;;4975216;28;19917;-66
2023/10/04 17:46:16;;;;;;;;;;;16.90;98.30;;;;;;4974851;28;19906;-66
2023/10/04 17:48:42;;;;;;;;;;;16.80;98.10;;;;;;4974762;28;19910;-67
2023/10/04 17:51:08;;;;;;;;;;;16.80;98.40;;;;;;4974941;28;19965;-65
2023/10/04 17:53:34;;;;;;;;;;;16.70;98.40;;;;;;4976055;28;19952;-66
2023/10/04 17:56:04;;;;;;;;;;;16.70;98.40;;;;;;4977285;28;19910;-66
2023/10/04 17:58:30;;;;;;;;;;;16.60;98.60;;;;;;4977226;28;19910;-65
2023/10/04 18:00:55;;;;;;;;;;;16.60;98.80;;;;;;4978331;28;20013;-66
2023/10/04 18:03:20;;;;;;;;;;;16.60;98.90;;;;;;4978461;28;19906;-65
2023/10/04 18:05:46;;;;;;;;;;;16.60;99.10;;;;;;4970821;28;19912;-66
2023/10/04 18:08:14;;;;;;;;;;;16.60;99.10;;;;;;4970452;28;20280;-66
2023/10/04 18:10:39;;;;;;;;;;;16.60;99.30;;;;;;4976860;28;20320;-66
2023/10/04 18:13:05;;;;;;;;;;;16.50;99.50;;;;;;4976650;28;20005;-65
2023/10/04 18:15:30;;;;;;;;;;;16.50;99.80;;;;;;4965781;28;20276;-65
2023/10/04 18:17:56;;;;;;;;;;;16.40;99.90;;;;;;4976581;28;19910;-66
2023/10/04 18:20:22;;;;;;;;;;;16.30;99.90;;;;;;4974011;28;20053;-65